createdAt,value
2022-09-27T00:00:17.003Z,98169.75
2022-09-27T00:02:48.773Z,98174.31
2022-09-27T00:05:19.497Z,98172.25
2022-09-27T00:07:48.979Z,98164.78
2022-09-27T00:10:17.643Z,98164.41
2022-09-27T00:12:48.795Z,98164.22
2022-09-27T00:15:17.014Z,98160.25
2022-09-27T00:17:45.728Z,98163.78
2022-09-27T00:20:17.433Z,98154.50
2022-09-27T00:22:47.059Z,98150.09
2022-09-27T00:25:17.190Z,98151.97
2022-09-27T00:27:46.748Z,98156.31
2022-09-27T00:30:16.482Z,98145.81
2022-09-27T00:32:44.901Z,98139.63
2022-09-27T00:35:15.212Z,98136.28
2022-09-27T00:37:51.872Z,98134.22
2022-09-27T00:40:24.384Z,98127.63
2022-09-27T00:42:52.687Z,98123.91
2022-09-27T00:45:22.123Z,98111.50
2022-09-27T00:47:55.381Z,98112.94
2022-09-27T00:50:28.493Z,98104.06
2022-09-27T00:53:04.978Z,98095.78
2022-09-27T00:55:37.130Z,98097.00
2022-09-27T00:58:08.615Z,98094.13
2022-09-27T01:00:40.329Z,98101.34
2022-09-27T01:03:11.523Z,98109.00
2022-09-27T01:05:41.838Z,98099.94
2022-09-27T01:08:12.059Z,98085.63
2022-09-27T01:10:47.575Z,98083.16
2022-09-27T01:13:22.057Z,98083.19
2022-09-27T01:15:56.862Z,98076.78
2022-09-27T01:18:32.265Z,98066.03
2022-09-27T01:21:27.116Z,98066.03
2022-09-27T01:24:42.488Z,98074.72
2022-09-27T01:27:41.479Z,98068.91
2022-09-27T01:30:29.938Z,98059.38
2022-09-27T01:33:25.783Z,98056.31
2022-09-27T01:36:08.879Z,98045.97
2022-09-27T01:38:46.992Z,98049.25
2022-09-27T01:41:27.066Z,98043.09
2022-09-27T01:44:26.299Z,98041.00
2022-09-27T01:47:06.666Z,98031.72
2022-09-27T01:49:49.965Z,98040.41
2022-09-27T01:52:22.949Z,98031.31
2022-09-27T01:55:10.850Z,98037.53
2022-09-27T01:58:07.597Z,98033.38
2022-09-27T02:00:38.513Z,98027.78
2022-09-27T02:03:13.141Z,98027.19
2022-09-27T02:05:45.700Z,98023.59
2022-09-27T02:08:39.088Z,98019.53
2022-09-27T02:11:16.562Z,98020.56
2022-09-27T02:13:57.279Z,98008.13
2022-09-27T02:16:57.782Z,98008.38
2022-09-27T02:19:41.363Z,98008.13
2022-09-27T02:22:16.537Z,98012.63
2022-09-27T02:24:49.927Z,98016.56
2022-09-27T02:27:23.562Z,98018.25
2022-09-27T02:29:54.827Z,98018.63
2022-09-27T02:32:23.787Z,98017.41
2022-09-27T02:34:54.933Z,98022.97
2022-09-27T02:37:24.515Z,98017.00
2022-09-27T02:39:52.597Z,98022.16
2022-09-27T02:42:24.369Z,98012.84
2022-09-27T02:44:52.883Z,98006.09
2022-09-27T02:47:33.821Z,98012.69
2022-09-27T02:50:17.646Z,98013.66
2022-09-27T02:52:58.022Z,98008.84
2022-09-27T02:55:44.390Z,98014.06
2022-09-27T02:58:43.078Z,98014.22
2022-09-27T03:01:38.402Z,98006.84
2022-09-27T03:04:18.687Z,98007.28
2022-09-27T03:06:49.280Z,97999.22
2022-09-27T03:09:21.471Z,98007.09
2022-09-27T03:11:50.991Z,98006.50
2022-09-27T03:14:19.813Z,97998.59
2022-09-27T03:17:00.616Z,97993.34
2022-09-27T03:19:48.419Z,97984.13
2022-09-27T03:22:46.862Z,97987.00
2022-09-27T03:25:16.416Z,97984.09
2022-09-27T03:27:44.942Z,97982.84
2022-09-27T03:30:14.654Z,97985.16
2022-09-27T03:32:44.553Z,97983.75
2022-09-27T03:35:18.833Z,97971.56
2022-09-27T03:37:49.314Z,97971.81
2022-09-27T03:40:17.644Z,97966.00
2022-09-27T03:42:49.953Z,97967.25
2022-09-27T03:45:18.955Z,97960.25
2022-09-27T03:47:49.176Z,97964.75
2022-09-27T03:50:17.506Z,97956.97
2022-09-27T03:52:46.737Z,97954.47
2022-09-27T03:55:16.369Z,97938.00
2022-09-27T03:57:47.441Z,97935.69
2022-09-27T04:00:19.098Z,97927.09
2022-09-27T04:02:47.345Z,97926.09
2022-09-27T04:05:35.610Z,97926.91
2022-09-27T04:08:11.222Z,97930.34
2022-09-27T04:10:41.042Z,97914.47
2022-09-27T04:13:09.895Z,97913.25
2022-09-27T04:15:48.657Z,97928.13
2022-09-27T04:18:59.189Z,97930.38
2022-09-27T04:21:48.573Z,97921.53
2022-09-27T04:24:21.315Z,97926.69
2022-09-27T04:27:02.907Z,97916.13
2022-09-27T04:29:32.395Z,97920.28
2022-09-27T04:32:08.085Z,97924.16
2022-09-27T04:35:15.413Z,97921.47
2022-09-27T04:37:45.368Z,97918.19
2022-09-27T04:40:13.966Z,97920.31
2022-09-27T04:42:44.382Z,97920.31
2022-09-27T04:45:13.277Z,97914.53
2022-09-27T04:47:44.274Z,97918.25
2022-09-27T04:50:12.590Z,97918.25
2022-09-27T04:52:45.132Z,97917.84
2022-09-27T04:55:14.578Z,97917.88
2022-09-27T04:57:44.221Z,97907.94
2022-09-27T05:00:15.301Z,97911.84
2022-09-27T05:02:45.002Z,97909.81
2022-09-27T05:05:36.471Z,97912.50
2022-09-27T05:08:05.190Z,97906.69
2022-09-27T05:10:55.918Z,97908.56
2022-09-27T05:13:26.500Z,97903.19
2022-09-27T05:15:56.127Z,97904.59
2022-09-27T05:18:59.193Z,97891.19
2022-09-27T05:22:03.548Z,97893.50
2022-09-27T05:24:33.859Z,97884.38
2022-09-27T05:27:08.380Z,97878.22
2022-09-27T05:29:38.415Z,97886.09
2022-09-27T05:32:14.312Z,97878.59
2022-09-27T05:34:43.280Z,97885.88
2022-09-27T05:37:13.197Z,97878.25
2022-09-27T05:39:43.009Z,97877.00
2022-09-27T05:42:17.442Z,97874.13
2022-09-27T05:44:47.774Z,97876.31
2022-09-27T05:47:17.998Z,97870.78
2022-09-27T05:49:46.164Z,97871.63
2022-09-27T05:52:16.826Z,97878.44
2022-09-27T05:54:46.501Z,97870.38
2022-09-27T05:57:17.864Z,97867.91
2022-09-27T05:59:50.343Z,97867.50
2022-09-27T06:02:22.498Z,97867.50
2022-09-27T06:05:11.216Z,97872.06
2022-09-27T06:08:20.337Z,97862.56
2022-09-27T06:11:03.225Z,97860.06
2022-09-27T06:13:34.528Z,97857.41
2022-09-27T06:16:05.164Z,97848.94
2022-09-27T06:18:35.382Z,97856.56
2022-09-27T06:21:05.678Z,97853.44
2022-09-27T06:23:36.344Z,97860.25
2022-09-27T06:26:28.106Z,97867.09
2022-09-27T06:29:16.749Z,97875.34
2022-09-27T06:32:06.473Z,97860.25
2022-09-27T06:34:56.084Z,97867.09
2022-09-27T06:37:27.069Z,97856.75
2022-09-27T06:39:56.121Z,97865.63
2022-09-27T06:42:43.777Z,97876.59
2022-09-27T06:45:32.832Z,97873.91
2022-09-27T06:48:26.471Z,97865.66
2022-09-27T06:51:00.560Z,97862.69
2022-09-27T06:53:32.866Z,97859.00
2022-09-27T06:56:01.663Z,97848.44
2022-09-27T06:58:54.624Z,97856.28
2022-09-27T07:02:02.010Z,97866.44
2022-09-27T07:04:31.794Z,97863.75
2022-09-27T07:07:06.331Z,97859.63
2022-09-27T07:09:39.219Z,97867.31
2022-09-27T07:12:07.903Z,97865.44
2022-09-27T07:14:36.161Z,97861.31
2022-09-27T07:17:05.957Z,97863.78
2022-09-27T07:19:41.978Z,97862.94
2022-09-27T07:22:11.069Z,97863.34
2022-09-27T07:24:41.904Z,97868.50
2022-09-27T07:27:11.301Z,97885.06
2022-09-27T07:29:40.156Z,97878.25
2022-09-27T07:32:08.871Z,97884.41
2022-09-27T07:34:39.029Z,97878.03
2022-09-27T07:37:09.758Z,97892.44
2022-09-27T07:39:40.717Z,97888.75
2022-09-27T07:42:08.853Z,97888.94
2022-09-27T07:44:42.344Z,97888.53
2022-09-27T07:47:29.513Z,97893.09
2022-09-27T07:50:06.509Z,97883.38
2022-09-27T07:53:08.044Z,97898.44
2022-09-27T07:55:38.316Z,97900.31
2022-09-27T07:58:13.087Z,97903.41
2022-09-27T08:00:42.094Z,97902.78
2022-09-27T08:03:16.219Z,97903.81
2022-09-27T08:05:47.885Z,97903.44
2022-09-27T08:08:18.897Z,97908.78
2022-09-27T08:10:49.174Z,97911.03
2022-09-27T08:13:20.293Z,97914.16
2022-09-27T08:15:52.660Z,97912.28
2022-09-27T08:18:24.408Z,97922.38
2022-09-27T08:20:57.832Z,97931.50
2022-09-27T08:23:54.075Z,97930.84
2022-09-27T08:26:33.416Z,97941.38
2022-09-27T08:29:14.353Z,97939.28
2022-09-27T08:31:51.946Z,97951.81
2022-09-27T08:34:20.746Z,97956.97
2022-09-27T08:36:49.018Z,97965.81
2022-09-27T08:39:18.525Z,97966.88
2022-09-27T08:41:55.960Z,97963.13
2022-09-27T08:44:35.497Z,97976.53
2022-09-27T08:47:25.939Z,97973.41
2022-09-27T08:49:57.853Z,97975.19
2022-09-27T08:52:28.987Z,97976.69
2022-09-27T08:55:03.800Z,97982.00
2022-09-27T08:57:31.953Z,97984.03
2022-09-27T09:00:06.319Z,97983.06
2022-09-27T09:02:36.681Z,97973.53
2022-09-27T09:05:08.456Z,97974.75
2022-09-27T09:07:47.743Z,97970.00
2022-09-27T09:10:48.007Z,97958.53
2022-09-27T09:13:27.802Z,97945.03
2022-09-27T09:16:08.591Z,97937.59
2022-09-27T09:18:58.015Z,97941.44
2022-09-27T09:21:47.153Z,97959.19
2022-09-27T09:24:36.886Z,97962.44
2022-09-27T09:27:13.503Z,97958.00
2022-09-27T09:29:58.048Z,97962.66
2022-09-27T09:32:34.784Z,97952.78
2022-09-27T09:35:05.237Z,97963.56
2022-09-27T09:37:38.368Z,97960.66
2022-09-27T09:40:17.072Z,97959.75
2022-09-27T09:42:50.288Z,97958.72
2022-09-27T09:45:24.126Z,97959.81
2022-09-27T09:47:56.662Z,97961.00
2022-09-27T09:50:28.908Z,97956.03
2022-09-27T09:53:02.655Z,97957.56
2022-09-27T09:55:34.716Z,97958.50
2022-09-27T09:58:17.741Z,97956.56
2022-09-27T10:00:52.487Z,97956.16
2022-09-27T10:03:20.808Z,97958.63
2022-09-27T10:05:49.229Z,97956.34
2022-09-27T10:08:20.054Z,97940.75
2022-09-27T10:10:52.930Z,97934.34
2022-09-27T10:13:38.593Z,97928.78
2022-09-27T10:16:09.688Z,97919.31
2022-09-27T10:18:38.739Z,97919.09
2022-09-27T10:21:11.908Z,97928.59
2022-09-27T10:24:06.703Z,97923.00
2022-09-27T10:27:13.279Z,97930.66
2022-09-27T10:29:44.183Z,97937.88
2022-09-27T10:32:22.948Z,97933.56
2022-09-27T10:34:52.423Z,97938.28
2022-09-27T10:37:23.233Z,97933.50
2022-09-27T10:40:00.746Z,97933.53
2022-09-27T10:42:34.845Z,97926.25
2022-09-27T10:45:25.966Z,97922.31
2022-09-27T10:48:20.440Z,97932.25
2022-09-27T10:50:59.314Z,97937.22
2022-09-27T10:53:39.203Z,97920.44
2022-09-27T10:56:22.990Z,97931.78
2022-09-27T10:58:52.138Z,97927.69
2022-09-27T11:01:22.891Z,97939.69
2022-09-27T11:04:06.492Z,97937.81
2022-09-27T11:06:39.348Z,97919.84
2022-09-27T11:09:26.445Z,97927.50
2022-09-27T11:12:11.454Z,97932.25
2022-09-27T11:14:39.736Z,97918.38
2022-09-27T11:17:16.192Z,97916.91
2022-09-27T11:20:18.838Z,97910.72
2022-09-27T11:23:20.084Z,97909.06
2022-09-27T11:26:09.011Z,97902.66
2022-09-27T11:28:45.737Z,97905.16
2022-09-27T11:31:32.023Z,97904.09
2022-09-27T11:34:31.081Z,97906.50
2022-09-27T11:37:09.341Z,97908.06
2022-09-27T11:39:51.180Z,97903.88
2022-09-27T11:42:34.706Z,97912.22
2022-09-27T11:45:34.383Z,97917.53
2022-09-27T11:48:18.020Z,97916.13
2022-09-27T11:51:00.991Z,97922.34
2022-09-27T11:53:42.270Z,97911.34
2022-09-27T11:56:23.759Z,97912.63
2022-09-27T11:59:02.122Z,97907.59
2022-09-27T12:01:36.847Z,97920.09
2022-09-27T12:04:38.442Z,97919.66
2022-09-27T12:07:12.889Z,97918.41
2022-09-27T12:09:44.629Z,97908.66
2022-09-27T12:12:15.213Z,97909.53
2022-09-27T12:14:47.359Z,97918.00
2022-09-27T12:17:20.215Z,97928.06
2022-09-27T12:19:52.672Z,97918.41
2022-09-27T12:23:00.688Z,97917.56
2022-09-27T12:25:54.368Z,97913.72
2022-09-27T12:28:53.233Z,97925.44
2022-09-27T12:31:30.335Z,97923.34
2022-09-27T12:34:09.768Z,97920.03
2022-09-27T12:36:43.977Z,97921.28
2022-09-27T12:39:21.068Z,97908.81
2022-09-27T12:42:02.328Z,97906.78
2022-09-27T12:44:50.976Z,97930.59
2022-09-27T12:47:36.344Z,97919.63
2022-09-27T12:50:20.107Z,97921.63
2022-09-27T12:52:54.426Z,97919.75
2022-09-27T12:55:50.869Z,97920.03
2022-09-27T12:58:42.104Z,97922.91
2022-09-27T13:01:21.342Z,97922.06
2022-09-27T13:04:37.234Z,97918.53
